Main page
METAR-TAF:

METAR-TAF

Airports :

Alice Springs Airport

Alice Springs, Australia

latitude: 23-48S, longitude: 133-53E, elevation: 545 m

Current weather observation

The report was made 8 hours and 58 minutes ago, at 05:00 UTC
Wind 7 kt from the North
Temperature 23°C
Humidity 7%
Pressure 1017 hPa
Visibility 10 km or more
no clouds below 1500 m and no cumulonimbus

METAR: YBAS 210500Z 36007KT CAVOK 23/M15 Q1017

Time: 23:28 (13:58 UTC)

Forecast

The report was made 8 hours and 55 minutes ago, at 05:03 UTC
Forecast valid from 21 at 06 UTC to 22 at 06 UTC
Wind 6 kt from the North/Northeast
Visibility 10 km or more
no clouds below 1500 m and no cumulonimbus
From 21 at 1500 UTC
Wind 5 kt from the Northwest
Visibility 10 km or more
no clouds below 1500 m and no cumulonimbus
From 22 at 0000 UTC
Wind 12 kt from the Northwest
Visibility 10 km or more
no clouds below 1500 m and no cumulonimbus

TAF: YBAS 210503Z 2106/2206 02006KT CAVOK FM211500 32005KT CAVOK FM220000 32012KT CAVOK

Weather observations and forecasts of more than 4000 airports (METAR and TAF reports).

The available stations are represented by yellow and red dots on the map.

Hover mouse over dot to see the name of the station.

Then click to see weather observations and forecasts.

To change the map : click on the green buttons with a black cross to zoom in, on the green button with a dash to zoom out, or on the green arrows for adjacent maps.


METAR-TAF: